createdAt,value
2023-05-04T00:00:11.879Z,3.80
2023-05-04T00:02:39.864Z,4.20
2023-05-04T00:05:07.352Z,4.40
2023-05-04T00:07:34.832Z,3.60
2023-05-04T00:10:01.990Z,4.20
2023-05-04T00:12:29.002Z,4.90
2023-05-04T00:14:56.202Z,4.40
2023-05-04T00:17:22.962Z,4.50
2023-05-04T00:19:49.780Z,4.00
2023-05-04T00:22:17.146Z,4.20
2023-05-04T00:24:44.448Z,4.80
2023-05-04T00:27:11.685Z,4.30
2023-05-04T00:29:38.649Z,4.40
2023-05-04T00:32:05.905Z,5.00
2023-05-04T00:34:34.278Z,3.30
2023-05-04T00:37:01.322Z,3.80
2023-05-04T00:39:28.269Z,3.10
2023-05-04T00:41:55.919Z,3.60
2023-05-04T00:44:24.165Z,4.00
2023-05-04T00:46:52.573Z,3.80
2023-05-04T00:49:21.414Z,4.00
2023-05-04T00:52:44.644Z,4.90
2023-05-04T00:55:11.627Z,4.40
2023-05-04T00:57:38.494Z,4.20
2023-05-04T01:00:06.973Z,5.70
2023-05-04T01:02:34.901Z,6.00
2023-05-04T01:05:02.199Z,4.40
2023-05-04T01:07:53.357Z,5.60
2023-05-04T01:10:22.880Z,4.60
2023-05-04T01:12:52.939Z,5.10
2023-05-04T01:15:20.061Z,4.00
2023-05-04T01:17:46.993Z,3.70
2023-05-04T01:20:14.299Z,5.40
2023-05-04T01:22:41.566Z,4.20
2023-05-04T01:25:09.287Z,4.30
2023-05-04T01:27:50.344Z,5.90
2023-05-04T01:30:20.945Z,3.90
2023-05-04T01:32:48.069Z,5.40
2023-05-04T01:35:15.135Z,5.30
2023-05-04T01:37:42.590Z,5.20
2023-05-04T01:40:10.008Z,5.40
2023-05-04T01:42:37.484Z,5.60
2023-05-04T01:45:05.802Z,5.40
2023-05-04T01:47:32.780Z,3.50
2023-05-04T01:49:59.870Z,3.50
2023-05-04T01:52:26.720Z,5.40
2023-05-04T01:54:53.548Z,5.60
2023-05-04T01:57:20.552Z,6.00
2023-05-04T01:59:47.341Z,5.80
2023-05-04T02:02:14.346Z,5.70
2023-05-04T02:04:43.804Z,7.00
2023-05-04T02:07:11.160Z,7.30
2023-05-04T02:09:38.027Z,7.30
2023-05-04T02:12:05.431Z,6.40
2023-05-04T02:14:32.505Z,6.80
2023-05-04T02:16:59.419Z,4.10
2023-05-04T02:19:26.234Z,5.60
2023-05-04T02:21:53.231Z,5.70
2023-05-04T02:24:21.937Z,5.40
2023-05-04T02:26:48.768Z,7.90
2023-05-04T02:29:16.181Z,7.00
2023-05-04T02:31:43.009Z,6.20
2023-05-04T02:34:10.211Z,6.60
2023-05-04T02:36:41.110Z,6.60
2023-05-04T02:39:08.220Z,7.70
2023-05-04T02:41:36.981Z,7.20
2023-05-04T02:44:03.900Z,8.10
2023-05-04T02:46:32.548Z,5.60
2023-05-04T02:48:59.594Z,5.00
2023-05-04T02:51:26.349Z,5.10
2023-05-04T02:53:53.122Z,7.70
2023-05-04T02:56:20.090Z,7.60
2023-05-04T02:58:47.051Z,5.80
2023-05-04T03:01:14.099Z,6.80
2023-05-04T03:03:40.996Z,8.80
2023-05-04T03:06:07.961Z,7.20
2023-05-04T03:08:36.107Z,7.50
2023-05-04T03:11:03.261Z,7.90
2023-05-04T03:13:30.340Z,8.40
2023-05-04T03:15:58.187Z,6.00
2023-05-04T03:18:25.316Z,5.90
2023-05-04T03:20:52.567Z,5.40
2023-05-04T03:23:20.619Z,5.90
2023-05-04T03:25:47.797Z,7.10
2023-05-04T03:28:14.869Z,7.40
2023-05-04T03:30:41.935Z,7.10
2023-05-04T03:33:10.270Z,8.50
2023-05-04T03:35:37.252Z,7.60
2023-05-04T03:38:04.489Z,6.00
2023-05-04T03:40:31.513Z,6.30
2023-05-04T03:42:58.347Z,4.80
2023-05-04T03:45:28.532Z,5.90
2023-05-04T03:47:56.709Z,6.90
2023-05-04T03:50:23.764Z,7.10
2023-05-04T03:52:51.797Z,7.70
2023-05-04T03:55:19.877Z,7.50
2023-05-04T03:57:49.103Z,10.20
2023-05-04T04:00:17.450Z,9.70
2023-05-04T04:02:48.526Z,9.70
2023-05-04T04:12:53.763Z,7.20
2023-05-04T04:15:20.904Z,8.10
2023-05-04T04:17:47.743Z,7.20
2023-05-04T04:20:14.877Z,7.30
2023-05-04T04:22:41.837Z,6.70
2023-05-04T04:25:10.504Z,8.80
2023-05-04T04:27:38.071Z,8.20
2023-05-04T04:30:05.704Z,5.10
2023-05-04T04:32:34.169Z,5.70
2023-05-04T04:35:01.288Z,5.90
2023-05-04T04:37:28.463Z,8.40
2023-05-04T04:39:55.504Z,8.00
2023-05-04T04:42:22.463Z,8.10
2023-05-04T04:44:49.973Z,7.00
2023-05-04T04:47:17.837Z,7.90
2023-05-04T04:49:44.921Z,6.70
2023-05-04T04:52:12.358Z,7.20
2023-05-04T04:54:39.482Z,6.20
2023-05-04T04:57:06.592Z,4.90
2023-05-04T04:59:33.647Z,5.60
2023-05-04T05:02:00.633Z,5.20
2023-05-04T05:04:28.204Z,5.50
2023-05-04T05:06:55.369Z,6.30
2023-05-04T05:09:22.287Z,7.40
2023-05-04T05:11:49.206Z,6.50
2023-05-04T05:14:16.050Z,6.70
2023-05-04T05:16:43.000Z,6.10
2023-05-04T05:19:10.031Z,7.50
2023-05-04T05:21:37.398Z,7.50
2023-05-04T05:24:04.386Z,6.60
2023-05-04T05:26:31.327Z,4.20
2023-05-04T05:28:58.616Z,5.10
2023-05-04T05:31:25.843Z,4.00
2023-05-04T05:33:52.775Z,6.00
2023-05-04T05:36:19.535Z,5.80
2023-05-04T05:38:47.792Z,6.40
2023-05-04T05:41:15.943Z,6.10
2023-05-04T05:43:43.129Z,6.30
2023-05-04T05:46:10.037Z,8.70
2023-05-04T05:48:37.343Z,7.80
2023-05-04T05:51:04.917Z,9.00
2023-05-04T05:53:31.928Z,5.70
2023-05-04T05:55:59.267Z,10.70
2023-05-04T05:58:26.123Z,7.30
2023-05-04T06:00:53.142Z,5.40
2023-05-04T06:03:20.249Z,7.10
2023-05-04T06:05:47.236Z,9.70
2023-05-04T06:08:14.217Z,8.50
2023-05-04T06:10:41.496Z,7.20
2023-05-04T06:13:08.597Z,5.30
2023-05-04T06:15:36.633Z,5.60
2023-05-04T06:18:03.658Z,5.70
2023-05-04T06:20:31.895Z,6.80
2023-05-04T06:22:58.895Z,6.20
2023-05-04T06:25:26.057Z,6.40
2023-05-04T06:27:53.102Z,7.00
2023-05-04T06:30:24.384Z,7.00
2023-05-04T06:32:51.820Z,9.50
2023-05-04T06:35:19.271Z,12.60
2023-05-04T06:37:46.477Z,5.00
2023-05-04T06:40:14.329Z,5.90
2023-05-04T06:42:41.558Z,5.90
2023-05-04T06:45:09.253Z,5.40
2023-05-04T06:47:37.555Z,5.90
2023-05-04T06:50:09.598Z,7.80
2023-05-04T06:52:41.550Z,8.40
2023-05-04T06:55:08.763Z,5.80
2023-05-04T06:57:35.653Z,5.50
2023-05-04T07:00:04.553Z,6.50
2023-05-04T07:02:31.736Z,5.70
2023-05-04T07:04:59.128Z,7.50
2023-05-04T07:07:26.164Z,6.30
2023-05-04T07:09:53.457Z,6.70
2023-05-04T07:12:20.285Z,4.50
2023-05-04T07:14:47.316Z,5.20
2023-05-04T07:17:14.322Z,7.40
2023-05-04T07:19:41.326Z,4.90
2023-05-04T07:22:08.289Z,6.20
2023-05-04T07:24:35.398Z,7.40
2023-05-04T07:27:02.169Z,7.10
2023-05-04T07:29:29.238Z,8.40
2023-05-04T07:31:56.433Z,6.30
2023-05-04T07:34:30.182Z,5.80
2023-05-04T07:37:04.208Z,4.80
2023-05-04T07:39:31.603Z,6.60
2023-05-04T07:41:58.488Z,7.50
2023-05-04T07:44:25.580Z,4.70
2023-05-04T07:46:52.331Z,6.30
2023-05-04T07:49:19.217Z,7.30
2023-05-04T07:51:46.739Z,5.10
2023-05-04T07:54:15.638Z,5.90
2023-05-04T07:56:42.562Z,7.20
2023-05-04T07:59:09.779Z,7.70
2023-05-04T08:01:37.215Z,7.10
2023-05-04T08:04:04.260Z,5.90
2023-05-04T08:06:31.609Z,4.20
2023-05-04T08:08:59.116Z,4.70
2023-05-04T08:11:26.825Z,5.40
2023-05-04T08:13:53.863Z,4.70
2023-05-04T08:16:20.763Z,5.30
2023-05-04T08:18:47.557Z,5.40
2023-05-04T08:21:15.020Z,4.70
2023-05-04T08:23:43.713Z,4.90
2023-05-04T08:26:10.762Z,4.40
2023-05-04T08:28:39.334Z,3.70
2023-05-04T08:31:06.677Z,4.30
2023-05-04T08:33:34.211Z,4.10
2023-05-04T08:36:01.914Z,5.70
2023-05-04T08:38:29.979Z,4.70
2023-05-04T08:40:57.635Z,5.10
2023-05-04T08:43:24.651Z,5.50
2023-05-04T08:45:51.795Z,3.20
2023-05-04T08:48:18.726Z,4.60
2023-05-04T08:50:46.071Z,4.30
2023-05-04T08:53:13.951Z,5.00
2023-05-04T08:55:42.210Z,4.20
2023-05-04T08:58:10.904Z,4.50
2023-05-04T09:00:38.907Z,4.60
2023-05-04T09:03:06.381Z,4.80
2023-05-04T09:05:33.577Z,5.60
2023-05-04T09:08:00.852Z,4.50
2023-05-04T09:10:29.600Z,3.90
2023-05-04T09:12:57.317Z,6.20
2023-05-04T09:15:24.692Z,6.00
2023-05-04T09:17:57.686Z,5.90
2023-05-04T09:20:26.316Z,6.00
2023-05-04T09:23:19.917Z,3.90
2023-05-04T09:25:52.097Z,4.10
2023-05-04T09:28:19.958Z,5.70
2023-05-04T09:30:48.371Z,5.80
2023-05-04T09:33:16.710Z,4.70
2023-05-04T09:35:44.783Z,4.80
2023-05-04T09:38:11.920Z,8.10
2023-05-04T09:40:42.381Z,5.80
2023-05-04T09:43:10.925Z,5.30
2023-05-04T09:45:41.302Z,7.20
2023-05-04T09:48:26.856Z,5.30
2023-05-04T09:50:55.120Z,4.10
2023-05-04T09:53:24.945Z,4.10
2023-05-04T09:56:03.873Z,5.10
2023-05-04T09:58:32.300Z,6.20
2023-05-04T10:01:01.175Z,7.10
2023-05-04T10:03:28.410Z,4.70
2023-05-04T10:05:55.602Z,5.50
2023-05-04T10:08:22.575Z,4.40
2023-05-04T10:10:50.301Z,5.70
2023-05-04T10:13:18.196Z,5.80
2023-05-04T10:16:14.408Z,3.90
2023-05-04T10:18:58.576Z,4.70
2023-05-04T10:21:48.759Z,4.50
2023-05-04T10:24:37.520Z,6.00
2023-05-04T10:27:12.636Z,5.50
2023-05-04T10:29:39.752Z,6.60
2023-05-04T10:32:16.787Z,5.10
2023-05-04T10:34:45.478Z,5.70
2023-05-04T10:37:19.691Z,4.60
2023-05-04T10:39:53.724Z,5.00
2023-05-04T10:42:21.077Z,4.60
2023-05-04T10:44:55.447Z,5.30
2023-05-04T10:47:33.238Z,3.50
2023-05-04T10:50:07.394Z,10.00
2023-05-04T10:52:58.354Z,5.10
2023-05-04T10:55:26.996Z,4.50
2023-05-04T10:57:55.368Z,4.50
2023-05-04T11:00:22.910Z,4.40
2023-05-04T11:02:50.279Z,4.40
2023-05-04T11:05:19.961Z,4.50
2023-05-04T11:07:47.503Z,4.60
2023-05-04T11:10:24.517Z,6.30
2023-05-04T11:12:52.264Z,4.30
2023-05-04T11:15:21.349Z,7.50
2023-05-04T11:17:49.281Z,5.60
2023-05-04T11:20:26.593Z,4.20
2023-05-04T11:22:54.253Z,3.90
2023-05-04T11:25:27.918Z,3.90
2023-05-04T11:27:54.775Z,5.20
2023-05-04T11:30:22.281Z,5.00
2023-05-04T11:32:54.229Z,4.70
2023-05-04T11:35:25.220Z,3.50
2023-05-04T11:37:52.122Z,5.60
2023-05-04T11:40:22.106Z,4.40
2023-05-04T11:42:52.429Z,4.40
2023-05-04T11:45:24.692Z,5.60
2023-05-04T11:47:52.390Z,4.70
2023-05-04T11:50:20.795Z,8.30
2023-05-04T11:52:47.951Z,5.60
2023-05-04T11:55:30.992Z,6.10
2023-05-04T11:58:02.554Z,4.70
2023-05-04T12:00:49.204Z,5.60
2023-05-04T12:03:18.061Z,7.40
2023-05-04T12:05:50.810Z,5.30
2023-05-04T12:08:30.588Z,5.40
2023-05-04T12:11:16.547Z,4.20
2023-05-04T12:13:45.105Z,5.30
2023-05-04T12:18:39.688Z,6.10
2023-05-04T12:21:19.784Z,6.90
2023-05-04T12:23:47.080Z,4.60
2023-05-04T12:26:14.286Z,5.40
2023-05-04T12:28:42.167Z,5.20
2023-05-04T12:31:09.447Z,5.00
2023-05-04T12:33:36.401Z,5.60
2023-05-04T12:36:04.859Z,4.50
2023-05-04T12:38:33.006Z,6.30
2023-05-04T12:41:03.296Z,4.20
2023-05-04T12:43:31.456Z,7.70
2023-05-04T12:45:58.395Z,5.50
2023-05-04T12:48:33.150Z,5.80
2023-05-04T12:53:32.135Z,5.20
2023-05-04T12:55:59.539Z,5.70
2023-05-04T12:58:26.543Z,5.60
2023-05-04T13:00:53.398Z,5.70
2023-05-04T13:03:20.338Z,4.70
2023-05-04T13:05:49.817Z,3.20
2023-05-04T13:08:18.396Z,4.00
2023-05-04T13:10:46.686Z,6.70
2023-05-04T13:13:17.210Z,4.80
2023-05-04T13:15:44.944Z,5.40
2023-05-04T13:18:12.956Z,4.00
2023-05-04T13:20:40.995Z,4.50
2023-05-04T13:23:08.120Z,4.60
2023-05-04T13:25:35.195Z,5.30
2023-05-04T13:28:02.130Z,4.30
2023-05-04T13:30:29.501Z,5.00
2023-05-04T13:32:56.499Z,5.80
2023-05-04T13:35:23.992Z,4.60
2023-05-04T13:37:51.603Z,4.10
2023-05-04T13:40:18.798Z,4.30
2023-05-04T13:42:45.769Z,3.80
2023-05-04T13:45:13.257Z,5.40
2023-05-04T13:47:40.849Z,3.80
2023-05-04T13:50:09.379Z,3.10
2023-05-04T13:52:37.066Z,4.30
2023-05-04T13:55:04.944Z,3.40
2023-05-04T13:57:32.159Z,4.50
2023-05-04T14:00:06.962Z,5.00
2023-05-04T14:02:38.848Z,4.20
2023-05-04T14:05:07.982Z,4.20
2023-05-04T14:07:35.483Z,3.60
2023-05-04T14:10:02.697Z,5.60
2023-05-04T14:12:30.818Z,3.80
2023-05-04T14:14:59.053Z,4.10
2023-05-04T14:17:26.292Z,4.20
2023-05-04T14:19:53.421Z,4.10
2023-05-04T14:22:20.545Z,5.10
2023-05-04T14:24:49.397Z,5.90
2023-05-04T14:27:17.482Z,4.30
2023-05-04T14:29:46.541Z,4.30
2023-05-04T14:32:14.913Z,3.90
2023-05-04T14:34:41.753Z,4.70
2023-05-04T14:37:08.762Z,4.40
2023-05-04T14:39:36.750Z,3.40
2023-05-04T14:42:03.899Z,3.40
2023-05-04T14:44:31.237Z,3.40
2023-05-04T14:46:58.310Z,4.20
2023-05-04T14:49:36.594Z,3.60
2023-05-04T14:52:04.255Z,5.30
2023-05-04T14:54:31.393Z,5.00
2023-05-04T14:56:59.986Z,4.40
2023-05-04T14:59:26.980Z,3.60
2023-05-04T15:01:55.388Z,4.00
2023-05-04T15:06:50.256Z,5.00
2023-05-04T15:09:17.236Z,5.10
2023-05-04T15:11:44.261Z,8.90
2023-05-04T15:14:11.380Z,4.50
2023-05-04T15:16:38.410Z,4.40
2023-05-04T15:19:05.413Z,4.90
2023-05-04T15:21:32.925Z,3.40
2023-05-04T15:23:59.915Z,4.90
2023-05-04T15:26:27.190Z,3.80
2023-05-04T15:28:54.431Z,5.50
2023-05-04T15:31:21.416Z,5.50
2023-05-04T15:33:51.070Z,3.70
2023-05-04T15:36:18.145Z,4.40
2023-05-04T15:38:45.084Z,4.40
2023-05-04T15:41:13.885Z,3.30
2023-05-04T15:43:40.819Z,3.60
2023-05-04T15:46:07.760Z,5.80
2023-05-04T15:48:34.829Z,3.80
2023-05-04T15:51:02.315Z,3.50
2023-05-04T15:53:29.379Z,2.90
2023-05-04T15:55:56.386Z,2.90
2023-05-04T15:58:23.319Z,2.90
2023-05-04T16:00:50.843Z,3.70
2023-05-04T16:03:18.129Z,3.30
2023-05-04T16:05:45.205Z,2.50
2023-05-04T16:08:12.409Z,2.10
2023-05-04T16:10:39.229Z,3.70
2023-05-04T16:13:06.678Z,3.60
2023-05-04T16:15:34.364Z,2.70
2023-05-04T16:18:01.543Z,2.80
2023-05-04T16:20:29.256Z,2.50
2023-05-04T16:22:56.374Z,2.40
2023-05-04T16:25:23.294Z,1.90
2023-05-04T16:27:50.351Z,2.10
2023-05-04T16:30:17.374Z,3.10
2023-05-04T16:32:44.856Z,1.70
2023-05-04T16:35:12.205Z,3.40
2023-05-04T16:37:39.537Z,2.90
2023-05-04T16:40:16.453Z,1.60
2023-05-04T16:42:46.462Z,1.80
2023-05-04T16:45:14.777Z,2.80
2023-05-04T16:47:44.777Z,1.90
2023-05-04T16:50:12.331Z,2.10
2023-05-04T16:52:39.981Z,2.50
2023-05-04T16:55:10.002Z,1.70
2023-05-04T16:57:39.496Z,3.20
2023-05-04T17:00:07.740Z,2.20
2023-05-04T17:02:37.078Z,2.10
2023-05-04T17:05:06.835Z,3.30
2023-05-04T17:07:34.208Z,2.80
2023-05-04T17:10:01.135Z,2.90
2023-05-04T17:12:29.082Z,2.00
2023-05-04T17:14:56.110Z,1.70
2023-05-04T17:17:23.116Z,2.40
2023-05-04T17:19:50.057Z,2.30
2023-05-04T17:22:17.538Z,2.00
2023-05-04T17:24:45.694Z,2.80
2023-05-04T17:27:13.144Z,7.20
2023-05-04T17:29:41.202Z,1.70
2023-05-04T17:32:08.870Z,2.30
2023-05-04T17:34:36.452Z,3.30
2023-05-04T17:44:48.753Z,5.30
2023-05-04T17:47:15.890Z,3.10
2023-05-04T17:49:42.869Z,4.50
2023-05-04T17:52:10.876Z,1.70
2023-05-04T17:54:38.912Z,3.30
2023-05-04T17:57:05.926Z,2.40
2023-05-04T17:59:33.257Z,5.90
2023-05-04T18:02:00.377Z,3.20
2023-05-04T18:04:28.718Z,2.20
2023-05-04T18:06:55.769Z,2.30
2023-05-04T18:09:22.787Z,2.10
2023-05-04T18:11:49.505Z,2.90
2023-05-04T18:14:16.307Z,1.90
2023-05-04T18:16:43.374Z,2.80
2023-05-04T18:19:10.260Z,5.30
2023-05-04T18:21:37.298Z,3.10
2023-05-04T18:24:04.470Z,3.30
2023-05-04T18:26:31.341Z,6.20
2023-05-04T18:29:07.445Z,3.00
2023-05-04T18:31:44.527Z,2.50
2023-05-04T18:34:11.355Z,5.40
2023-05-04T18:36:38.109Z,3.50
2023-05-04T18:39:05.109Z,3.30
2023-05-04T18:41:32.051Z,3.30
2023-05-04T18:44:14.549Z,4.40
2023-05-04T18:46:41.504Z,3.90
2023-05-04T18:49:09.163Z,5.10
2023-05-04T18:51:35.892Z,5.60
2023-05-04T18:54:02.797Z,2.80
2023-05-04T18:56:29.643Z,3.00
2023-05-04T18:58:56.398Z,3.70
2023-05-04T19:01:23.736Z,2.80
2023-05-04T19:03:50.581Z,3.10
2023-05-04T19:06:17.870Z,3.70
2023-05-04T19:08:45.037Z,3.90
2023-05-04T19:11:12.016Z,4.10
2023-05-04T19:13:38.964Z,3.40
2023-05-04T19:16:06.363Z,4.10
2023-05-04T19:18:33.910Z,4.20
2023-05-04T19:21:04.572Z,4.10
2023-05-04T19:23:31.352Z,4.80
2023-05-04T19:25:58.278Z,3.50
2023-05-04T19:28:25.119Z,4.30
2023-05-04T19:30:54.288Z,3.50
2023-05-04T19:33:21.687Z,3.10
2023-05-04T19:35:49.048Z,3.80
2023-05-04T19:38:16.137Z,5.60
2023-05-04T19:40:43.160Z,2.80
2023-05-04T19:43:10.082Z,5.00
2023-05-04T19:45:37.391Z,4.10
2023-05-04T19:48:04.846Z,3.00
2023-05-04T19:50:31.738Z,4.50
2023-05-04T19:52:58.581Z,5.00
2023-05-04T19:55:25.363Z,4.50
2023-05-04T19:57:52.248Z,3.70
2023-05-04T20:00:19.536Z,3.70
2023-05-04T20:02:46.736Z,4.10
2023-05-04T20:05:13.688Z,4.00
2023-05-04T20:07:40.909Z,3.50
2023-05-04T20:10:08.448Z,2.60
2023-05-04T20:12:35.631Z,11.20
2023-05-04T20:15:02.447Z,4.60
2023-05-04T20:17:29.475Z,3.10
2023-05-04T20:19:56.537Z,3.80
2023-05-04T20:22:23.322Z,3.60
2023-05-04T20:24:50.383Z,2.40
2023-05-04T20:27:17.116Z,3.90
2023-05-04T20:29:43.983Z,3.20
2023-05-04T20:32:10.952Z,1.90
2023-05-04T20:34:39.610Z,3.60
2023-05-04T20:37:06.627Z,4.70
2023-05-04T20:39:34.159Z,2.50
2023-05-04T20:42:01.334Z,2.10
2023-05-04T20:44:28.215Z,2.20
2023-05-04T20:46:54.905Z,4.60
2023-05-04T20:49:21.744Z,3.50
2023-05-04T20:51:48.642Z,3.40
2023-05-04T20:54:15.377Z,3.30
2023-05-04T20:56:42.323Z,2.50
2023-05-04T20:59:09.143Z,2.40
2023-05-04T21:01:35.918Z,3.70
2023-05-04T21:04:02.870Z,3.20
2023-05-04T21:06:29.983Z,2.20
2023-05-04T21:08:57.235Z,2.70
2023-05-04T21:11:24.097Z,3.00
2023-05-04T21:13:50.871Z,3.50
2023-05-04T21:16:17.631Z,2.90
2023-05-04T21:18:45.284Z,2.60
2023-05-04T21:21:12.241Z,2.60
2023-05-04T21:23:39.047Z,2.40
2023-05-04T21:26:06.090Z,2.50
2023-05-04T21:28:34.179Z,2.10
2023-05-04T21:31:00.949Z,3.40
2023-05-04T21:33:27.789Z,2.50
2023-05-04T21:35:54.778Z,1.80
2023-05-04T21:38:22.427Z,3.80
2023-05-04T21:40:49.604Z,2.00
2023-05-04T21:43:16.765Z,2.10
2023-05-04T21:45:43.488Z,3.90
2023-05-04T21:48:10.433Z,3.30
2023-05-04T21:50:37.548Z,6.30
2023-05-04T21:53:04.352Z,2.10
2023-05-04T21:55:31.113Z,3.70
2023-05-04T21:57:57.984Z,3.60
2023-05-04T22:00:25.090Z,4.30
2023-05-04T22:02:53.916Z,4.00
2023-05-04T22:05:22.320Z,4.60
2023-05-04T22:07:49.678Z,5.60
2023-05-04T22:10:16.893Z,3.90
2023-05-04T22:12:44.306Z,3.50
2023-05-04T22:15:11.456Z,2.60
2023-05-04T22:17:39.115Z,2.90
2023-05-04T22:20:06.972Z,2.70
2023-05-04T22:22:34.172Z,2.90
2023-05-04T22:25:01.690Z,2.10
2023-05-04T22:27:28.662Z,3.70
2023-05-04T22:29:55.584Z,3.60
2023-05-04T22:32:22.384Z,2.90
2023-05-04T22:34:49.248Z,2.00
2023-05-04T22:37:16.020Z,2.60
2023-05-04T22:39:42.926Z,1.60
2023-05-04T22:42:09.802Z,2.70
2023-05-04T22:44:36.545Z,2.10
2023-05-04T22:47:03.927Z,3.50
2023-05-04T22:49:31.998Z,1.90
2023-05-04T22:51:58.752Z,2.30
2023-05-04T22:54:25.776Z,2.10
2023-05-04T22:56:52.642Z,2.70
2023-05-04T22:59:19.363Z,3.00
2023-05-04T23:01:46.528Z,3.00
2023-05-04T23:04:13.543Z,2.10
2023-05-04T23:06:40.824Z,2.00
2023-05-04T23:09:07.706Z,3.10
2023-05-04T23:11:36.900Z,2.20
2023-05-04T23:14:03.649Z,3.30
2023-05-04T23:16:30.943Z,3.50
2023-05-04T23:18:57.915Z,3.20
2023-05-04T23:21:24.645Z,3.80
2023-05-04T23:23:54.254Z,4.30
2023-05-04T23:26:21.101Z,4.60
2023-05-04T23:28:47.980Z,2.40
2023-05-04T23:31:14.738Z,2.70
2023-05-04T23:33:42.110Z,2.80
2023-05-04T23:36:09.054Z,4.50
2023-05-04T23:38:35.844Z,3.00
2023-05-04T23:41:04.363Z,3.10
2023-05-04T23:43:31.966Z,3.30
2023-05-04T23:46:02.760Z,3.20
2023-05-04T23:48:30.377Z,2.60
2023-05-04T23:50:58.466Z,2.40
2023-05-04T23:53:26.092Z,2.10
2023-05-04T23:56:01.258Z,2.70
2023-05-04T23:58:30.145Z,2.70
